Time;durP1;ratioP1;P1;durP2;ratioP2;P2;SDS_P1;SDS_P2;PMS_P1;PMS_P2;Temp;Humidity;BMP_temperature;BMP_pressure;BME280_temperature;BME280_humidity;BME280_pressure;Samples;Min_cycle;Max_cycle;Signal;HPM_P1;HPM_P2
2022/07/16 00:01:22;;;;;;;3.30;0.88;;;;;;;15.92;53.63;101300.78;7397871;19;20034;-68
2022/07/16 00:01:48;;;;;;;1.65;0.40;;;;;;;15.89;53.95;101298.25;7397633;19;20024;-69
2022/07/16 00:04:17;;;;;;;0.85;0.32;;;;;;;15.87;53.83;101292.13;7395648;19;20037;-68
2022/07/16 00:10:04;;;;;;;1.58;0.50;;;;;;;15.83;54.06;101293.19;7388466;19;19999;-67
2022/07/16 00:12:32;;;;;;;2.90;0.68;;;;;;;15.82;54.13;101291.44;7397631;19;20099;-68
2022/07/16 00:15:03;;;;;;;1.35;0.40;;;;;;;15.79;54.33;101289.72;7396924;19;20484;-68
2022/07/16 00:17:34;;;;;;;3.30;0.40;;;;;;;15.77;54.24;101287.16;7396553;19;20027;-68
2022/07/16 00:20:00;;;;;;;0.38;0.25;;;;;;;15.75;54.38;101288.13;7395839;19;20022;-68
2022/07/16 00:22:28;;;;;;;2.50;0.50;;;;;;;15.74;54.62;101281.09;7395321;19;20496;-68
2022/07/16 00:24:56;;;;;;;2.13;0.60;;;;;;;15.72;54.85;101281.16;7395947;19;20026;-68
2022/07/16 00:27:25;;;;;;;2.03;0.38;;;;;;;15.71;54.66;101282.06;7396572;19;20035;-68
2022/07/16 00:29:53;;;;;;;1.95;0.40;;;;;;;15.69;54.88;101277.75;7395049;19;20018;-68
2022/07/16 00:32:22;;;;;;;1.38;0.60;;;;;;;15.64;54.92;101275.25;7396782;19;20370;-68
2022/07/16 00:34:53;;;;;;;1.10;0.40;;;;;;;15.62;55.14;101271.81;7395140;19;20026;-68
2022/07/16 00:37:22;;;;;;;2.50;0.82;;;;;;;15.59;55.23;101275.41;7396892;19;20027;-68
2022/07/16 00:39:50;;;;;;;1.60;0.40;;;;;;;15.58;55.24;101275.47;7395524;19;20018;-68
2022/07/16 00:42:19;;;;;;;3.63;0.50;;;;;;;15.56;55.45;101270.22;7396147;19;20035;-68
2022/07/16 00:44:48;;;;;;;3.42;0.63;;;;;;;15.54;55.19;101269.41;7396781;19;20085;-68
2022/07/16 00:47:16;;;;;;;0.43;0.25;;;;;;;15.54;55.47;101265.91;7394486;19;20108;-68
2022/07/16 00:49:45;;;;;;;2.72;0.40;;;;;;;15.53;55.51;101267.72;7394916;19;20086;-68
2022/07/16 00:52:16;;;;;;;1.45;0.57;;;;;;;15.53;55.65;101262.41;7394591;19;20418;-69
2022/07/16 00:54:44;;;;;;;3.00;0.40;;;;;;;15.52;55.58;101262.44;7394425;19;20014;-68
2022/07/16 00:57:13;;;;;;;2.10;0.52;;;;;;;15.50;55.53;101257.22;7394642;19;20022;-69
2022/07/16 00:59:42;;;;;;;1.05;0.50;;;;;;;15.48;55.67;101257.28;7395999;19;20030;-68
2022/07/16 01:02:10;;;;;;;0.75;0.35;;;;;;;15.47;55.70;101255.53;7394826;19;20031;-68
2022/07/16 01:04:39;;;;;;;3.65;0.40;;;;;;;15.44;55.65;101250.38;7394571;19;20039;-68
2022/07/16 01:07:09;;;;;;;1.20;0.50;;;;;;;15.42;55.83;101249.56;7394505;19;20033;-68
2022/07/16 01:09:41;;;;;;;1.77;0.50;;;;;;;15.42;56.00;101246.06;7395379;19;20865;-68
2022/07/16 01:12:10;;;;;;;0.57;0.30;;;;;;;15.39;56.12;101247.03;7394939;19;20031;-69
2022/07/16 01:14:38;;;;;;;1.70;0.60;;;;;;;15.36;56.28;101243.63;7394798;19;20015;-68
2022/07/16 01:17:07;;;;;;;0.70;0.32;;;;;;;15.34;56.23;101246.28;7392614;19;20035;-69
2022/07/16 01:19:36;;;;;;;1.08;0.50;;;;;;;15.30;56.18;101244.66;7395296;19;20094;-69
2022/07/16 01:22:05;;;;;;;1.83;0.30;;;;;;;15.29;56.17;101248.22;7393860;19;20086;-69
2022/07/16 01:24:36;;;;;;;2.78;0.40;;;;;;;15.27;56.34;101239.50;7394206;19;20070;-69
2022/07/16 01:27:05;;;;;;;1.45;0.40;;;;;;;15.25;56.55;101242.19;7395050;19;20501;-69
2022/07/16 01:29:33;;;;;;;2.70;0.40;;;;;;;15.24;56.50;101244.88;7393735;19;20032;-68
2022/07/16 01:32:02;;;;;;;1.23;0.65;;;;;;;15.22;56.60;101237.00;7393662;19;20039;-69
2022/07/16 01:34:30;;;;;;;2.70;0.50;;;;;;;15.20;56.46;101233.53;7395418;19;20039;-69
2022/07/16 01:37:01;;;;;;;1.80;0.40;;;;;;;15.19;56.70;101230.94;7393091;19;20383;-69
2022/07/16 01:39:31;;;;;;;1.80;0.40;;;;;;;15.17;56.85;101227.50;7395716;19;20050;-69
2022/07/16 01:42:03;;;;;;;0.82;0.30;;;;;;;15.11;57.16;101218.00;7393550;19;20086;-69
2022/07/16 01:44:34;;;;;;;1.02;0.40;;;;;;;15.05;56.71;101212.91;7393586;19;20032;-69
2022/07/16 01:47:05;;;;;;;1.63;0.90;;;;;;;15.04;56.92;101206.78;7395043;19;20019;-69
2022/07/16 01:49:35;;;;;;;1.25;0.40;;;;;;;15.07;57.15;101211.94;7392659;19;20011;-69
2022/07/16 01:52:07;;;;;;;0.75;0.30;;;;;;;15.06;57.07;101217.28;7394812;19;20015;-69
2022/07/16 01:54:36;;;;;;;0.77;0.30;;;;;;;15.02;57.08;101203.31;7394231;19;20488;-69
2022/07/16 01:57:08;;;;;;;1.55;0.50;;;;;;;15.00;57.20;101202.50;7394240;19;20039;-69
2022/07/16 01:59:36;;;;;;;0.82;0.43;;;;;;;15.00;57.16;101205.16;7394652;19;20409;-68
2022/07/16 02:02:05;;;;;;;2.80;1.10;;;;;;;14.98;57.45;101193.75;7394451;19;20023;-69
2022/07/16 02:04:33;;;;;;;3.47;2.08;;;;;;;14.96;57.56;101193.81;7392540;19;20018;-69
2022/07/16 02:07:02;;;;;;;4.50;2.30;;;;;;;14.91;57.64;101190.47;7394144;19;20050;-69
2022/07/16 02:09:31;;;;;;;7.10;2.92;;;;;;;14.91;57.73;101181.66;7393687;19;20022;-69
2022/07/16 02:11:59;;;;;;;9.30;3.65;;;;;;;14.86;57.72;101187.09;7394298;19;20032;-69
2022/07/16 02:14:30;;;;;;;9.65;3.97;;;;;;;14.82;57.96;101186.34;7394086;19;20031;-69
2022/07/16 02:16:59;;;;;;;10.95;4.40;;;;;;;14.80;57.93;101176.75;7392308;19;20031;-69
2022/07/16 02:19:27;;;;;;;12.50;6.03;;;;;;;14.78;58.24;101178.56;7391852;19;20028;-69
2022/07/16 02:21:56;;;;;;;15.15;7.70;;;;;;;14.76;58.16;101175.09;7393515;19;20379;-69
2022/07/16 02:24:24;;;;;;;16.75;9.43;;;;;;;14.73;58.33;101173.41;7392186;19;20017;-69
2022/07/16 02:26:53;;;;;;;17.75;9.63;;;;;;;14.70;58.12;101170.88;7393295;19;20022;-69
2022/07/16 02:29:21;;;;;;;20.17;10.73;;;;;;;14.67;58.29;101170.97;7392511;19;20497;-69
2022/07/16 02:31:52;;;;;;;20.90;10.00;;;;;;;14.66;58.68;101174.53;7400733;19;20035;-68
2022/07/16 02:34:21;;;;;;;17.67;9.30;;;;;;;14.65;58.56;101172.81;7398515;19;20031;-69
2022/07/16 02:36:49;;;;;;;17.02;10.00;;;;;;;14.62;58.52;101171.09;7397920;19;20022;-69
2022/07/16 02:39:18;;;;;;;17.98;9.77;;;;;;;14.61;58.76;101166.72;7397833;19;20022;-69
2022/07/16 02:41:47;;;;;;;16.77;9.05;;;;;;;14.60;58.58;101162.34;7400478;19;20078;-68
2022/07/16 02:44:15;;;;;;;17.60;8.68;;;;;;;14.59;58.71;101157.97;7398461;19;20512;-69
2022/07/16 02:46:44;;;;;;;21.92;8.70;;;;;;;14.58;58.89;101161.53;7399825;19;20023;-69
2022/07/16 02:49:15;;;;;;;19.70;11.15;;;;;;;14.58;58.80;101156.25;7397420;19;20384;-68
2022/07/16 02:51:44;;;;;;;27.25;10.77;;;;;;;14.58;58.86;101152.75;7398166;19;20022;-69
2022/07/16 02:54:12;;;;;;;15.73;7.50;;;;;;;14.57;58.69;101148.38;7397722;19;20022;-68
2022/07/16 02:56:41;;;;;;;16.92;7.57;;;;;;;14.57;58.84;101140.47;7397477;19;20027;-68
2022/07/16 02:59:09;;;;;;;14.43;7.53;;;;;;;14.56;58.76;101139.59;7399418;19;20086;-68
2022/07/16 03:01:38;;;;;;;11.40;6.25;;;;;;;14.55;58.75;101145.78;7399858;19;20027;-69
2022/07/16 03:04:06;;;;;;;14.65;5.82;;;;;;;14.53;58.78;101137.06;7398201;19;20095;-68
2022/07/16 03:06:38;;;;;;;12.98;5.30;;;;;;;14.53;59.00;101136.19;7396985;19;20035;-68
2022/07/16 03:09:06;;;;;;;10.00;5.32;;;;;;;14.52;58.94;101135.34;7397259;19;20026;-68
2022/07/16 03:11:34;;;;;;;13.55;5.13;;;;;;;14.52;58.87;101134.47;7396721;19;20015;-69
2022/07/16 03:14:03;;;;;;;8.50;4.00;;;;;;;14.51;58.80;101133.63;7399440;19;20026;-68
2022/07/16 03:16:31;;;;;;;5.95;3.47;;;;;;;14.50;58.83;101131.88;7399025;19;20019;-68
2022/07/16 03:19:00;;;;;;;5.97;2.85;;;;;;;14.50;58.67;101134.53;7396553;19;20035;-68
2022/07/16 03:21:28;;;;;;;6.70;2.92;;;;;;;14.50;58.72;101132.72;7398894;19;20019;-68
2022/07/16 03:24:00;;;;;;;4.70;2.40;;;;;;;14.51;58.93;101128.34;7397960;19;20485;-69
2022/07/16 03:26:28;;;;;;;6.03;2.20;;;;;;;14.51;58.87;101128.34;7398719;19;20031;-68
2022/07/16 03:28:57;;;;;;;7.47;2.60;;;;;;;14.50;58.71;101123.97;7396690;19;20014;-69
2022/07/16 03:31:25;;;;;;;9.95;4.03;;;;;;;14.53;58.80;101125.63;7396753;19;20022;-69
2022/07/16 03:33:54;;;;;;;5.55;2.75;;;;;;;14.54;58.80;101135.28;7396911;19;20031;-69
2022/07/16 03:36:22;;;;;;;3.53;1.30;;;;;;;14.54;58.78;101125.56;7396628;19;20023;-68
2022/07/16 03:39:00;;;;;;;3.17;1.00;;;;;;;14.54;58.74;101128.22;7396482;19;20015;-68
2022/07/16 03:41:32;;;;;;;3.80;1.17;;;;;;;14.54;59.05;101132.66;7397210;19;20488;-68
2022/07/16 03:44:00;;;;;;;3.20;1.15;;;;;;;14.54;58.77;101137.94;7397902;19;20086;-68
2022/07/16 03:46:29;;;;;;;2.25;0.70;;;;;;;14.54;58.88;101136.13;7398470;19;20091;-68
2022/07/16 03:48:58;;;;;;;1.88;0.80;;;;;;;14.53;58.74;101136.19;7395947;19;20090;-69
2022/07/16 03:51:27;;;;;;;3.92;0.77;;;;;;;14.56;58.84;101136.97;7398169;19;20025;-69
2022/07/16 03:53:56;;;;;;;1.88;0.65;;;;;;;14.57;58.81;101137.81;7398132;19;20035;-68
2022/07/16 03:56:24;;;;;;;2.67;0.70;;;;;;;14.55;58.72;101126.47;7395823;19;20516;-68
2022/07/16 03:58:56;;;;;;;3.70;0.88;;;;;;;14.59;58.78;101125.44;7395957;19;20019;-68
2022/07/16 04:01:25;;;;;;;4.15;1.40;;;;;;;14.58;58.48;101119.28;7396062;19;20007;-69
2022/07/16 04:03:54;;;;;;;1.42;0.50;;;;;;;14.60;58.56;101114.81;7396823;19;20560;-68
2022/07/16 04:06:23;;;;;;;1.70;0.70;;;;;;;14.59;58.57;101121.00;7397813;19;20086;-68
2022/07/16 04:08:52;;;;;;;1.52;0.30;;;;;;;14.60;58.54;101125.38;7395815;19;20035;-68
2022/07/16 04:11:20;;;;;;;3.58;0.60;;;;;;;14.61;58.60;101123.63;7394742;19;20074;-68
2022/07/16 04:13:49;;;;;;;3.25;0.50;;;;;;;14.63;58.28;101119.13;7397116;19;20488;-68
2022/07/16 04:16:20;;;;;;;1.63;0.47;;;;;;;14.62;58.56;101112.13;7397501;19;20101;-67
2022/07/16 04:18:48;;;;;;;0.98;0.68;;;;;;;14.64;58.51;101113.84;7395291;19;20011;-69
2022/07/16 04:21:17;;;;;;;3.55;0.60;;;;;;;14.66;58.33;101104.09;7397390;19;20022;-68
2022/07/16 04:23:45;;;;;;;1.23;0.60;;;;;;;14.68;58.42;101109.31;7396567;19;20524;-69
2022/07/16 04:26:14;;;;;;;1.88;0.60;;;;;;;14.69;58.62;101099.63;7397067;19;20022;-69
2022/07/16 04:28:42;;;;;;;1.48;0.50;;;;;;;14.70;58.52;101096.94;7395398;19;20018;-69
2022/07/16 04:31:11;;;;;;;1.90;0.63;;;;;;;14.70;58.44;101091.66;7395198;19;20015;-68
2022/07/16 04:33:42;;;;;;;3.05;0.50;;;;;;;14.71;58.66;101076.66;7396830;19;20082;-69
2022/07/16 04:36:11;;;;;;;1.83;0.50;;;;;;;14.73;58.28;101083.63;7394822;19;20375;-68
2022/07/16 04:38:39;;;;;;;2.35;0.80;;;;;;;14.76;58.36;101080.00;7394827;19;20019;-69
2022/07/16 04:41:08;;;;;;;1.58;0.55;;;;;;;14.77;58.81;101082.63;7396271;19;20035;-69
2022/07/16 04:43:37;;;;;;;2.92;1.05;;;;;;;14.78;58.54;101071.13;7395988;19;20010;-69
2022/07/16 04:46:05;;;;;;;0.98;0.40;;;;;;;14.81;58.82;101076.31;7396223;19;20376;-69
2022/07/16 04:48:34;;;;;;;0.73;0.47;;;;;;;14.83;58.79;101079.75;7394650;19;20029;-68
2022/07/16 04:51:05;;;;;;;3.10;1.05;;;;;;;14.87;59.00;101082.28;7394171;19;20078;-68
2022/07/16 04:53:34;;;;;;;2.17;0.63;;;;;;;14.91;58.84;101086.56;7392704;19;20039;-69
2022/07/16 04:56:02;;;;;;;3.95;0.38;;;;;;;14.93;58.69;101082.94;7394140;19;20510;-68
2022/07/16 04:58:31;;;;;;;3.13;0.70;;;;;;;14.97;58.78;101083.69;7394547;19;20045;-69
2022/07/16 05:00:59;;;;;;;2.90;0.65;;;;;;;14.99;58.70;101080.09;7395719;19;20078;-68
2022/07/16 05:03:28;;;;;;;1.92;0.70;;;;;;;15.04;58.59;101092.25;7395495;19;20505;-69
2022/07/16 05:05:56;;;;;;;2.97;0.65;;;;;;;15.07;58.70;101089.53;7394412;19;20014;-69
2022/07/16 05:08:27;;;;;;;3.22;0.88;;;;;;;15.12;58.21;101083.16;7394680;19;20027;-69
2022/07/16 05:10:56;;;;;;;3.00;0.70;;;;;;;15.14;58.39;101091.91;7394459;19;20010;-68
2022/07/16 05:13:55;;;;;;;4.07;0.77;;;;;;;15.18;58.24;101081.22;7395654;19;20354;-68
2022/07/16 05:16:24;;;;;;;2.78;0.80;;;;;;;15.22;57.99;101082.84;7395970;19;20017;-69
2022/07/16 05:18:53;;;;;;;3.13;0.80;;;;;;;15.25;57.89;101083.59;7394052;19;20097;-69
2022/07/16 05:21:21;;;;;;;1.10;0.50;;;;;;;15.28;57.94;101082.63;7395581;19;20031;-69
2022/07/16 05:23:52;;;;;;;1.00;0.60;;;;;;;15.32;58.11;101084.25;7395017;19;20014;-69
2022/07/16 05:26:21;;;;;;;2.03;0.60;;;;;;;15.37;57.89;101092.88;7394253;19;20019;-68
2022/07/16 05:28:49;;;;;;;1.08;0.43;;;;;;;15.41;58.20;101089.19;7393104;19;20090;-68
2022/07/16 05:31:18;;;;;;;1.27;0.70;;;;;;;15.44;58.18;101086.44;7394870;19;20019;-69
2022/07/16 05:33:46;;;;;;;2.88;0.98;;;;;;;15.47;58.20;101088.97;7394732;19;20082;-69
2022/07/16 05:36:15;;;;;;;2.50;0.65;;;;;;;15.48;57.97;101074.81;7394511;19;20021;-68
2022/07/16 05:38:50;;;;;;;1.15;0.73;;;;;;;15.50;57.77;101071.25;7393329;19;20019;-68
2022/07/16 05:41:21;;;;;;;1.52;0.57;;;;;;;15.51;57.91;101068.56;7394176;19;20018;-69
2022/07/16 05:43:49;;;;;;;4.00;0.73;;;;;;;15.53;57.97;101066.72;7394137;19;20070;-68
2022/07/16 05:46:18;;;;;;;2.60;0.63;;;;;;;15.58;57.74;101066.53;7392952;19;20086;-68
2022/07/16 05:48:46;;;;;;;3.00;0.57;;;;;;;15.62;57.49;101057.59;7392683;19;20023;-69
2022/07/16 05:51:15;;;;;;;2.78;0.98;;;;;;;15.64;57.41;101063.66;7392537;19;20014;-69
2022/07/16 05:53:43;;;;;;;2.67;0.70;;;;;;;15.68;57.41;101064.41;7394798;19;20081;-69
2022/07/16 05:56:12;;;;;;;1.42;0.70;;;;;;;15.68;57.42;101059.97;7394930;19;20039;-69
2022/07/16 05:58:43;;;;;;;2.33;1.08;;;;;;;15.74;57.65;101069.47;7393176;19;20018;-69
2022/07/16 06:01:12;;;;;;;1.50;0.80;;;;;;;15.75;57.33;101066.75;7392822;19;20014;-69
2022/07/16 06:03:40;;;;;;;2.25;0.80;;;;;;;15.82;57.51;101069.22;7395299;19;20015;-69
2022/07/16 06:06:09;;;;;;;3.35;0.77;;;;;;;15.86;57.34;101068.16;7399289;19;20441;-69
2022/07/16 06:08:38;;;;;;;2.47;0.77;;;;;;;15.90;57.08;101072.44;7399106;19;20425;-69
2022/07/16 06:11:06;;;;;;;4.05;1.02;;;;;;;15.92;57.21;101074.09;7399607;19;20011;-69
2022/07/16 06:13:36;;;;;;;3.00;0.77;;;;;;;15.96;56.97;101075.69;7398468;19;20031;-69
2022/07/16 06:16:08;;;;;;;2.33;0.80;;;;;;;15.99;57.07;101068.56;7401654;19;20025;-69
2022/07/16 06:18:37;;;;;;;3.67;0.90;;;;;;;16.01;56.90;101078.16;7398485;19;20021;-69
2022/07/16 06:21:06;;;;;;;13.65;6.05;;;;;;;16.04;57.20;101078.03;7400913;19;20025;-69
2022/07/16 06:23:34;;;;;;;2.60;1.10;;;;;;;16.08;57.00;101071.69;7398253;19;20026;-68
2022/07/16 06:26:03;;;;;;;8.88;1.35;;;;;;;16.11;56.78;101076.88;7398780;19;20375;-69
2022/07/16 06:28:32;;;;;;;3.78;1.40;;;;;;;16.16;56.93;101073.19;7398594;19;20549;-68
2022/07/16 06:31:00;;;;;;;1.35;0.90;;;;;;;16.22;56.78;101078.25;7401108;19;20031;-66
2022/07/16 06:33:31;;;;;;;2.17;1.20;;;;;;;16.26;56.81;101078.06;7397824;19;20018;-68
2022/07/16 06:36:00;;;;;;;1.98;0.90;;;;;;;16.33;56.70;101073.38;7400945;19;20015;-69
2022/07/16 06:38:28;;;;;;;2.47;0.90;;;;;;;16.39;56.72;101070.47;7397981;19;20027;-67
2022/07/16 06:40:57;;;;;;;2.20;0.80;;;;;;;16.45;56.44;101080.81;7397598;19;20022;-68
2022/07/16 06:43:25;;;;;;;4.18;0.88;;;;;;;16.52;56.31;101077.91;7400086;19;20509;-68
2022/07/16 06:45:54;;;;;;;3.88;1.77;;;;;;;16.58;56.08;101078.53;7398784;19;20014;-68
2022/07/16 06:48:23;;;;;;;5.13;1.02;;;;;;;16.66;56.43;101070.25;7398076;19;20078;-67
2022/07/16 06:50:54;;;;;;;3.55;0.93;;;;;;;16.71;56.19;101062.13;7397827;19;20015;-68
2022/07/16 06:53:22;;;;;;;2.47;1.10;;;;;;;16.83;55.98;101079.28;7401448;19;20039;-68
2022/07/16 06:55:51;;;;;;;3.65;1.08;;;;;;;16.88;56.07;101070.22;7397591;19;20019;-68
2022/07/16 06:58:19;;;;;;;3.00;1.13;;;;;;;16.91;55.86;101071.91;7398154;19;20019;-67
2022/07/16 07:00:48;;;;;;;3.40;1.10;;;;;;;16.91;56.24;101080.69;7397505;19;20419;-67
2022/07/16 07:03:16;;;;;;;1.20;1.08;;;;;;;16.91;56.10;101078.03;7399753;19;20086;-67
2022/07/16 07:05:45;;;;;;;3.47;1.25;;;;;;;16.90;56.24;101086.88;7397982;19;20367;-68
2022/07/16 07:08:16;;;;;;;2.65;0.95;;;;;;;16.88;56.31;101079.94;7397352;19;20031;-67
2022/07/16 07:10:44;;;;;;;3.50;1.55;;;;;;;16.87;56.61;101079.09;7399432;19;20086;-68
2022/07/16 07:13:13;;;;;;;2.50;1.20;;;;;;;16.86;56.65;101095.91;7396922;19;20014;-68
2022/07/16 07:15:42;;;;;;;2.72;1.20;;;;;;;16.80;57.26;101113.84;7398446;19;20022;-68
2022/07/16 07:18:11;;;;;;;6.13;1.40;;;;;;;16.77;57.07;101101.59;7397598;19;20491;-68
2022/07/16 07:20:39;;;;;;;2.83;1.10;;;;;;;16.75;57.06;101106.94;7399103;19;20011;-69
2022/07/16 07:23:08;;;;;;;3.42;1.30;;;;;;;16.73;58.27;101105.28;7399000;19;20031;-68
2022/07/16 07:25:39;;;;;;;1.63;1.23;;;;;;;16.63;59.85;101112.78;7396507;19;20019;-68
2022/07/16 07:28:08;;;;;;;4.82;1.63;;;;;;;16.49;62.83;101126.59;7397044;19;20376;-67
2022/07/16 07:30:36;;;;;;;4.70;1.45;;;;;;;16.29;64.21;101130.88;7396182;19;20023;-68
2022/07/16 07:33:05;;;;;;;3.47;1.40;;;;;;;16.18;62.89;101129.59;7398041;19;20078;-68
2022/07/16 07:35:33;;;;;;;3.85;1.90;;;;;;;16.05;64.17;101132.69;7396167;19;20022;-68
2022/07/16 07:38:02;;;;;;;4.35;1.80;;;;;;;15.90;66.65;101143.88;7396209;19;20019;-68
2022/07/16 07:40:40;;;;;;;4.80;1.60;;;;;;;15.73;69.33;101137.41;7394723;19;20138;-68
2022/07/16 07:43:08;;;;;;;2.28;1.50;;;;;;;15.57;71.11;101146.78;7397834;19;20035;-68
2022/07/16 07:45:37;;;;;;;2.63;1.70;;;;;;;15.44;68.82;101136.69;7395261;19;20031;-68
2022/07/16 07:48:06;;;;;;;4.88;2.10;;;;;;;15.37;68.67;101129.88;7395998;19;20022;-68
2022/07/16 07:50:35;;;;;;;4.90;1.98;;;;;;;15.39;69.05;101117.47;7396811;19;20436;-69
2022/07/16 07:53:03;;;;;;;2.95;2.13;;;;;;;15.46;69.17;101123.41;7395065;19;20022;-68
2022/07/16 07:55:32;;;;;;;3.95;2.50;;;;;;;15.57;68.71;101133.56;7397432;19;20090;-69
2022/07/16 07:58:03;;;;;;;2.15;1.88;;;;;;;15.66;69.12;101130.59;7396091;19;20024;-68
2022/07/16 08:00:32;;;;;;;4.22;1.75;;;;;;;15.75;68.31;101124.97;7397877;19;20025;-69
2022/07/16 08:03:00;;;;;;;4.47;1.92;;;;;;;15.86;67.78;101129.00;7397493;19;20086;-66
2022/07/16 08:05:29;;;;;;;4.38;1.77;;;;;;;15.98;67.54;101125.91;7396846;19;20091;-68
2022/07/16 08:07:57;;;;;;;2.85;1.75;;;;;;;16.17;67.09;101130.50;7395657;19;20022;-67
2022/07/16 08:10:26;;;;;;;6.28;1.90;;;;;;;16.34;66.29;101135.13;7395091;19;20432;-67
2022/07/16 08:12:54;;;;;;;4.82;1.70;;;;;;;16.50;65.74;101132.72;7397242;19;20031;-67
2022/07/16 08:15:26;;;;;;;3.30;1.77;;;;;;;16.65;64.89;101134.75;7396735;19;20485;-67
2022/07/16 08:17:54;;;;;;;4.43;1.48;;;;;;;16.78;63.98;101135.09;7395769;19;20537;-67
2022/07/16 08:20:23;;;;;;;2.75;1.40;;;;;;;16.87;63.15;101131.19;7394506;19;20433;-67
2022/07/16 08:22:52;;;;;;;2.13;1.30;;;;;;;16.92;62.10;101134.56;7394529;19;20011;-67
2022/07/16 08:28:02;;;;;;;2.08;1.00;;;;;;;17.08;61.54;101135.63;7393015;19;20025;-67
2022/07/16 08:30:33;;;;;;;3.92;1.13;;;;;;;17.18;60.33;101146.69;7396183;19;20064;-68
2022/07/16 08:33:01;;;;;;;3.47;1.48;;;;;;;17.27;59.41;101121.56;7397104;19;20035;-66
2022/07/16 08:35:30;;;;;;;1.33;0.90;;;;;;;17.35;59.45;101140.69;7393813;19;20028;-68
2022/07/16 08:37:58;;;;;;;1.48;1.00;;;;;;;17.39;58.87;101154.66;7395002;19;20015;-68
2022/07/16 08:40:27;;;;;;;1.67;1.20;;;;;;;17.41;58.87;101147.50;7395640;19;20022;-67
2022/07/16 08:42:56;;;;;;;2.35;1.30;;;;;;;17.46;59.23;101155.25;7394421;19;20019;-67
2022/07/16 08:45:25;;;;;;;1.70;0.80;;;;;;;17.44;57.73;101163.28;7394797;19;20077;-67
2022/07/16 08:47:56;;;;;;;2.97;1.20;;;;;;;17.42;56.52;101165.97;7395230;19;20018;-67
2022/07/16 08:50:24;;;;;;;3.65;1.25;;;;;;;17.43;56.32;101173.00;7395963;19;20019;-67
2022/07/16 08:52:55;;;;;;;2.55;1.00;;;;;;;17.46;56.76;101163.22;7395035;19;20014;-67
2022/07/16 08:55:25;;;;;;;2.22;0.95;;;;;;;17.50;56.41;101163.00;7394204;19;20011;-67
2022/07/16 08:57:55;;;;;;;2.72;1.10;;;;;;;17.57;56.93;101150.34;7394128;19;20022;-68
2022/07/16 09:00:24;;;;;;;2.20;1.00;;;;;;;17.66;56.12;101162.31;7395681;19;20488;-67
2022/07/16 09:02:52;;;;;;;2.92;0.93;;;;;;;17.74;56.24;101152.22;7393925;19;20014;-68
2022/07/16 09:05:24;;;;;;;1.95;1.17;;;;;;;17.82;55.15;101170.44;7393699;19;20022;-66
2022/07/16 09:07:53;;;;;;;2.35;1.00;;;;;;;17.91;55.42;101164.72;7394900;19;20019;-66
2022/07/16 09:10:23;;;;;;;1.38;0.90;;;;;;;17.97;54.58;101168.91;7395659;19;20026;-66
2022/07/16 09:12:52;;;;;;;2.90;0.98;;;;;;;18.06;53.92;101160.53;7395576;19;20015;-66
2022/07/16 09:15:29;;;;;;;1.40;1.00;;;;;;;18.15;53.95;101160.09;7395215;19;20070;-66
2022/07/16 09:18:13;;;;;;;1.70;1.30;;;;;;;18.23;53.28;101173.00;7393524;19;20032;-66
2022/07/16 09:20:46;;;;;;;3.15;1.08;;;;;;;18.25;52.60;101165.84;7395162;19;20409;-66
2022/07/16 09:23:23;;;;;;;2.15;1.10;;;;;;;18.27;52.41;101163.97;7393361;19;20031;-65
2022/07/16 09:25:53;;;;;;;4.78;0.90;;;;;;;18.29;52.72;101163.91;7394811;19;20022;-66
2022/07/16 09:28:22;;;;;;;2.45;0.75;;;;;;;18.36;52.71;101165.31;7393409;19;20022;-66
2022/07/16 09:30:50;;;;;;;1.65;1.08;;;;;;;18.43;52.69;101173.88;7392782;19;20026;-66
2022/07/16 09:33:21;;;;;;;1.92;0.90;;;;;;;18.47;51.76;101172.78;7395288;19;20015;-66
2022/07/16 09:36:07;;;;;;;1.55;0.80;;;;;;;18.51;50.80;101158.41;7394990;19;20023;-66
2022/07/16 09:38:52;;;;;;;5.70;1.20;;;;;;;18.58;49.91;101170.47;7394840;19;20074;-67
2022/07/16 09:41:22;;;;;;;1.13;0.70;;;;;;;18.60;50.17;101179.22;7401956;19;20019;-66
2022/07/16 09:43:51;;;;;;;1.48;0.90;;;;;;;18.60;48.82;101176.56;7398960;19;20480;-66
2022/07/16 09:46:21;;;;;;;1.50;0.77;;;;;;;18.59;48.40;101180.16;7398060;19;20074;-65
2022/07/16 09:48:51;;;;;;;1.50;0.85;;;;;;;18.63;49.01;101179.06;7398223;19;20026;-65
2022/07/16 09:51:25;;;;;;;2.05;0.65;;;;;;;18.67;49.10;101166.50;7398536;19;20375;-65
2022/07/16 09:53:55;;;;;;;9.90;1.27;;;;;;;18.71;49.20;101166.25;7398481;19;20022;-66
2022/07/16 09:56:26;;;;;;;2.83;0.75;;;;;;;18.72;47.47;101183.09;7401110;19;20481;-65
2022/07/16 09:58:56;;;;;;;1.33;0.68;;;;;;;18.71;48.28;101176.88;7398548;19;20035;-66
2022/07/16 10:01:25;;;;;;;3.20;0.77;;;;;;;18.82;48.40;101162.25;7398124;19;20510;-65
2022/07/16 10:03:54;;;;;;;1.70;0.77;;;;;;;18.89;47.34;101188.44;7401004;19;20035;-65
2022/07/16 10:06:25;;;;;;;3.42;0.75;;;;;;;18.93;48.09;101175.88;7399929;19;20078;-65
2022/07/16 10:08:54;;;;;;;2.20;0.80;;;;;;;18.92;47.24;101192.78;7398224;19;20082;-65
2022/07/16 10:11:23;;;;;;;1.52;0.68;;;;;;;18.92;47.23;101181.25;7399748;19;20029;-66
2022/07/16 10:13:54;;;;;;;1.67;0.98;;;;;;;18.99;47.26;101188.00;7398207;19;20022;-66
2022/07/16 10:16:40;;;;;;;1.45;0.85;;;;;;;19.14;47.24;101181.06;7401333;19;20037;-65
2022/07/16 10:19:10;;;;;;;1.73;0.90;;;;;;;19.28;46.84;101183.00;7400355;19;20014;-66
2022/07/16 10:21:43;;;;;;;1.40;0.73;;;;;;;19.38;45.47;101186.91;7400447;19;20102;-66
2022/07/16 10:24:13;;;;;;;1.10;0.57;;;;;;;19.46;45.13;101200.69;7398086;19;20031;-66
2022/07/16 10:26:42;;;;;;;1.45;0.70;;;;;;;19.51;45.29;101192.44;7397754;19;20014;-66
2022/07/16 10:29:11;;;;;;;2.30;1.00;;;;;;;19.49;45.72;101202.31;7397070;19;20355;-66
2022/07/16 10:31:41;;;;;;;4.60;0.75;;;;;;;19.35;48.97;101226.97;7399226;19;20594;-65
2022/07/16 10:34:35;;;;;;;2.38;1.20;;;;;;;18.93;59.27;101229.06;7399953;19;20023;-65
2022/07/16 10:37:08;;;;;;;2.30;1.30;;;;;;;18.25;61.31;101237.56;7396348;19;20102;-66
2022/07/16 10:39:37;;;;;;;1.63;0.80;;;;;;;17.51;63.52;101262.00;7397178;19;20082;-66
2022/07/16 10:42:08;;;;;;;2.85;0.82;;;;;;;17.05;62.43;101233.84;7397314;19;20141;-65
2022/07/16 10:44:48;;;;;;;2.33;0.80;;;;;;;16.73;66.03;101229.81;7397832;19;20054;-66
2022/07/16 10:47:18;;;;;;;2.13;0.93;;;;;;;16.61;65.06;101225.88;7398048;19;20018;-66
2022/07/16 10:49:47;;;;;;;1.88;0.90;;;;;;;16.66;65.79;101228.34;7397822;19;20015;-65
2022/07/16 10:52:20;;;;;;;2.53;0.80;;;;;;;16.77;65.44;101237.56;7396873;19;20035;-65
2022/07/16 10:55:05;;;;;;;1.88;0.95;;;;;;;16.86;65.11;101238.16;7397544;19;20018;-66
2022/07/16 10:57:38;;;;;;;2.65;0.90;;;;;;;16.90;66.31;101248.53;7397518;19;20022;-65
2022/07/16 11:00:08;;;;;;;2.83;1.30;;;;;;;16.85;63.53;101253.16;7396798;19;20086;-65
2022/07/16 11:02:40;;;;;;;2.47;1.15;;;;;;;16.82;64.74;101247.13;7399789;19;20041;-68
2022/07/16 11:05:16;;;;;;;3.15;0.90;;;;;;;16.86;63.46;101259.34;7399228;19;20030;-66
2022/07/16 11:07:47;;;;;;;3.70;1.23;;;;;;;16.91;63.18;101263.56;7396862;19;20078;-65
2022/07/16 11:10:16;;;;;;;2.80;1.05;;;;;;;17.00;62.69;101257.03;7400357;19;20014;-65
2022/07/16 11:12:45;;;;;;;1.40;0.90;;;;;;;17.14;61.74;101260.91;7397126;19;20014;-66
2022/07/16 11:15:14;;;;;;;0.93;0.60;;;;;;;17.30;60.78;101256.69;7399591;19;20022;-66
2022/07/16 11:17:43;;;;;;;1.38;0.63;;;;;;;17.46;59.66;101258.69;7396664;19;20035;-65
2022/07/16 11:20:12;;;;;;;1.58;0.68;;;;;;;17.58;58.38;101261.69;7398946;19;20086;-66
2022/07/16 11:22:41;;;;;;;2.58;1.00;;;;;;;17.75;57.48;101268.94;7395855;19;20082;-66
2022/07/16 11:25:13;;;;;;;1.40;1.00;;;;;;;17.92;56.82;101256.72;7398697;19;20054;-65
2022/07/16 11:27:42;;;;;;;2.15;0.70;;;;;;;18.03;56.33;101261.56;7397036;19;20015;-65
2022/07/16 11:30:13;;;;;;;2.20;0.70;;;;;;;18.07;54.44;101248.09;7398089;19;20014;-65
2022/07/16 11:32:44;;;;;;;2.05;0.80;;;;;;;18.16;53.46;101272.47;7397964;19;20082;-65
2022/07/16 11:35:13;;;;;;;4.07;0.90;;;;;;;18.23;53.69;101282.75;7396409;19;20036;-65
2022/07/16 11:37:52;;;;;;;2.35;0.50;;;;;;;18.28;51.39;101301.13;7395545;19;20487;-65
2022/07/16 11:40:35;;;;;;;5.55;0.70;;;;;;;18.37;50.26;101289.22;7398557;19;20018;-65